sensor_id;sensor_type;location;lat;lon;timestamp;pressure;altitude;pressure_sealevel;temperature;humidity
83444;BME280;73374;41.170;-96.156;2023-12-20T00:00:27;97125.84;;;6.36;53.52
83444;BME280;73374;41.170;-96.156;2023-12-20T00:05:30;97126.31;;;6.12;53.59
83444;BME280;73374;41.170;-96.156;2023-12-20T00:10:33;97121.16;;;6.02;55.00
83444;BME280;73374;41.170;-96.156;2023-12-20T00:15:37;97129.56;;;6.04;53.92
83444;BME280;73374;41.170;-96.156;2023-12-20T00:20:40;97135.41;;;5.78;55.01
83444;BME280;73374;41.170;-96.156;2023-12-20T00:25:43;97148.72;;;5.63;55.53
83444;BME280;73374;41.170;-96.156;2023-12-20T00:30:48;97154.00;;;5.42;56.79
83444;BME280;73374;41.170;-96.156;2023-12-20T00:35:51;97154.78;;;5.33;56.77
83444;BME280;73374;41.170;-96.156;2023-12-20T00:40:54;97160.69;;;5.14;58.04
83444;BME280;73374;41.170;-96.156;2023-12-20T00:45:59;97160.56;;;5.06;58.34
83444;BME280;73374;41.170;-96.156;2023-12-20T00:51:02;97160.91;;;4.92;57.90
83444;BME280;73374;41.170;-96.156;2023-12-20T00:56:05;97166.47;;;4.88;58.86
83444;BME280;73374;41.170;-96.156;2023-12-20T01:01:10;97166.63;;;4.96;58.02
83444;BME280;73374;41.170;-96.156;2023-12-20T01:06:13;97171.03;;;4.84;58.99
83444;BME280;73374;41.170;-96.156;2023-12-20T01:11:16;97164.09;;;4.75;58.83
83444;BME280;73374;41.170;-96.156;2023-12-20T01:16:21;97165.19;;;4.72;58.90
83444;BME280;73374;41.170;-96.156;2023-12-20T01:21:24;97169.44;;;4.52;59.30
83444;BME280;73374;41.170;-96.156;2023-12-20T01:26:27;97184.81;;;4.43;60.39
83444;BME280;73374;41.170;-96.156;2023-12-20T01:31:32;97181.31;;;4.23;60.47
83444;BME280;73374;41.170;-96.156;2023-12-20T01:36:35;97186.56;;;4.21;60.57
83444;BME280;73374;41.170;-96.156;2023-12-20T01:41:38;97194.75;;;3.94;62.22
83444;BME280;73374;41.170;-96.156;2023-12-20T01:46:42;97208.97;;;3.78;62.10
83444;BME280;73374;41.170;-96.156;2023-12-20T01:51:46;97206.19;;;3.70;61.97
83444;BME280;73374;41.170;-96.156;2023-12-20T01:56:50;97211.59;;;3.67;61.13
83444;BME280;73374;41.170;-96.156;2023-12-20T02:01:55;97212.09;;;3.49;61.49
83444;BME280;73374;41.170;-96.156;2023-12-20T02:06:59;97218.88;;;3.39;60.94
83444;BME280;73374;41.170;-96.156;2023-12-20T02:12:03;97200.47;;;3.34;59.54
83444;BME280;73374;41.170;-96.156;2023-12-20T02:17:08;97193.47;;;3.25;59.18
83444;BME280;73374;41.170;-96.156;2023-12-20T02:22:12;97199.31;;;3.16;58.72
83444;BME280;73374;41.170;-96.156;2023-12-20T02:27:15;97198.41;;;3.06;58.64
83444;BME280;73374;41.170;-96.156;2023-12-20T02:32:21;97206.00;;;2.96;58.31
83444;BME280;73374;41.170;-96.156;2023-12-20T02:37:27;97222.31;;;2.84;58.09
83444;BME280;73374;41.170;-96.156;2023-12-20T02:42:30;97233.63;;;2.81;57.70
83444;BME280;73374;41.170;-96.156;2023-12-20T02:47:33;97233.75;;;2.80;57.16
83444;BME280;73374;41.170;-96.156;2023-12-20T02:52:37;97232.44;;;2.74;57.22
83444;BME280;73374;41.170;-96.156;2023-12-20T02:57:40;97230.59;;;2.65;57.09
83444;BME280;73374;41.170;-96.156;2023-12-20T03:02:44;97245.47;;;2.60;57.12
83444;BME280;73374;41.170;-96.156;2023-12-20T03:07:48;97247.22;;;2.48;57.29
83444;BME280;73374;41.170;-96.156;2023-12-20T03:12:51;97242.09;;;2.48;57.10
83444;BME280;73374;41.170;-96.156;2023-12-20T03:17:54;97253.72;;;2.41;57.22
83444;BME280;73374;41.170;-96.156;2023-12-20T03:22:59;97252.50;;;2.23;57.40
83444;BME280;73374;41.170;-96.156;2023-12-20T03:28:02;97256.81;;;2.22;57.71
83444;BME280;73374;41.170;-96.156;2023-12-20T03:33:05;97255.88;;;2.23;57.45
83444;BME280;73374;41.170;-96.156;2023-12-20T03:38:10;97254.47;;;2.19;57.54
83444;BME280;73374;41.170;-96.156;2023-12-20T03:43:13;97265.88;;;2.15;57.67
83444;BME280;73374;41.170;-96.156;2023-12-20T03:48:16;97266.66;;;2.04;57.34
83444;BME280;73374;41.170;-96.156;2023-12-20T03:53:22;97269.28;;;2.16;57.40
83444;BME280;73374;41.170;-96.156;2023-12-20T03:58:25;97268.28;;;2.05;57.31
83444;BME280;73374;41.170;-96.156;2023-12-20T04:03:28;97270.03;;;2.05;57.85
83444;BME280;73374;41.170;-96.156;2023-12-20T04:08:33;97255.16;;;1.86;57.89
83444;BME280;73374;41.170;-96.156;2023-12-20T04:13:36;97257.63;;;1.88;57.95
83444;BME280;73374;41.170;-96.156;2023-12-20T04:18:39;97271.56;;;1.84;58.61
83444;BME280;73374;41.170;-96.156;2023-12-20T04:23:44;97261.06;;;1.75;58.76
83444;BME280;73374;41.170;-96.156;2023-12-20T04:28:47;97242.84;;;1.67;58.27
83444;BME280;73374;41.170;-96.156;2023-12-20T04:33:50;97262.97;;;1.85;58.63
83444;BME280;73374;41.170;-96.156;2023-12-20T04:38:55;97270.97;;;1.80;58.72
83444;BME280;73374;41.170;-96.156;2023-12-20T04:43:58;97284.59;;;1.80;59.37
83444;BME280;73374;41.170;-96.156;2023-12-20T04:49:00;97285.94;;;1.73;59.29
83444;BME280;73374;41.170;-96.156;2023-12-20T04:54:05;97284.19;;;1.50;59.17
83444;BME280;73374;41.170;-96.156;2023-12-20T04:59:08;97292.50;;;1.41;60.48
83444;BME280;73374;41.170;-96.156;2023-12-20T05:04:10;97283.59;;;1.34;60.42
83444;BME280;73374;41.170;-96.156;2023-12-20T05:09:15;97294.28;;;1.15;62.13
83444;BME280;73374;41.170;-96.156;2023-12-20T05:14:18;97293.69;;;1.11;62.39
83444;BME280;73374;41.170;-96.156;2023-12-20T05:19:21;97283.94;;;1.04;62.15
83444;BME280;73374;41.170;-96.156;2023-12-20T05:24:26;97284.47;;;0.96;62.16
83444;BME280;73374;41.170;-96.156;2023-12-20T05:29:29;97278.56;;;0.96;62.19
83444;BME280;73374;41.170;-96.156;2023-12-20T05:34:32;97287.56;;;0.88;62.29
83444;BME280;73374;41.170;-96.156;2023-12-20T05:39:37;97289.81;;;0.80;63.40
83444;BME280;73374;41.170;-96.156;2023-12-20T05:44:40;97288.16;;;0.79;62.79
83444;BME280;73374;41.170;-96.156;2023-12-20T05:49:44;97278.13;;;0.64;63.74
83444;BME280;73374;41.170;-96.156;2023-12-20T05:54:48;97291.75;;;0.64;63.81
83444;BME280;73374;41.170;-96.156;2023-12-20T05:59:51;97295.31;;;0.62;64.19
83444;BME280;73374;41.170;-96.156;2023-12-20T06:04:54;97299.41;;;0.64;64.67
83444;BME280;73374;41.170;-96.156;2023-12-20T06:09:59;97292.66;;;0.63;64.25
83444;BME280;73374;41.170;-96.156;2023-12-20T06:15:02;97298.69;;;0.62;64.42
83444;BME280;73374;41.170;-96.156;2023-12-20T06:20:06;97295.28;;;0.49;65.05
83444;BME280;73374;41.170;-96.156;2023-12-20T06:25:12;97297.53;;;0.41;65.54
83444;BME280;73374;41.170;-96.156;2023-12-20T06:30:16;97292.31;;;0.29;65.50
83444;BME280;73374;41.170;-96.156;2023-12-20T06:35:19;97291.09;;;0.35;65.89
83444;BME280;73374;41.170;-96.156;2023-12-20T06:40:23;97303.88;;;0.35;66.03
83444;BME280;73374;41.170;-96.156;2023-12-20T06:45:26;97296.91;;;0.24;66.65
83444;BME280;73374;41.170;-96.156;2023-12-20T06:50:29;97293.31;;;0.27;66.66
83444;BME280;73374;41.170;-96.156;2023-12-20T06:55:34;97297.56;;;0.14;66.44
83444;BME280;73374;41.170;-96.156;2023-12-20T07:00:37;97298.53;;;0.25;66.83
83444;BME280;73374;41.170;-96.156;2023-12-20T07:05:40;97302.59;;;0.15;66.63
83444;BME280;73374;41.170;-96.156;2023-12-20T07:10:44;97310.53;;;0.11;67.36
83444;BME280;73374;41.170;-96.156;2023-12-20T07:15:47;97315.75;;;0.09;66.63
83444;BME280;73374;41.170;-96.156;2023-12-20T07:20:50;97314.47;;;-0.11;67.50
83444;BME280;73374;41.170;-96.156;2023-12-20T07:25:54;97323.69;;;-0.22;67.58
83444;BME280;73374;41.170;-96.156;2023-12-20T07:30:57;97320.19;;;-0.34;67.87
83444;BME280;73374;41.170;-96.156;2023-12-20T07:36:00;97320.72;;;-0.29;67.84
83444;BME280;73374;41.170;-96.156;2023-12-20T07:41:05;97315.97;;;-0.35;68.36
83444;BME280;73374;41.170;-96.156;2023-12-20T07:46:08;97326.13;;;-0.48;69.09
83444;BME280;73374;41.170;-96.156;2023-12-20T07:51:11;97323.94;;;-0.54;69.16
83444;BME280;73374;41.170;-96.156;2023-12-20T07:56:16;97332.06;;;-0.62;69.49
83444;BME280;73374;41.170;-96.156;2023-12-20T08:01:20;97335.91;;;-0.83;70.12
83444;BME280;73374;41.170;-96.156;2023-12-20T08:06:24;97336.53;;;-0.94;71.12
83444;BME280;73374;41.170;-96.156;2023-12-20T08:11:29;97341.72;;;-0.95;70.95
83444;BME280;73374;41.170;-96.156;2023-12-20T08:16:32;97357.72;;;-1.07;71.68
83444;BME280;73374;41.170;-96.156;2023-12-20T08:21:35;97360.47;;;-1.10;72.00
83444;BME280;73374;41.170;-96.156;2023-12-20T08:26:41;97365.38;;;-1.07;72.02
83444;BME280;73374;41.170;-96.156;2023-12-20T08:31:44;97370.84;;;-1.43;72.43
83444;BME280;73374;41.170;-96.156;2023-12-20T08:36:48;97379.13;;;-1.40;72.90
83444;BME280;73374;41.170;-96.156;2023-12-20T08:41:53;97379.66;;;-1.49;72.57
83444;BME280;73374;41.170;-96.156;2023-12-20T08:46:56;97369.44;;;-1.63;73.73
83444;BME280;73374;41.170;-96.156;2023-12-20T08:51:59;97376.44;;;-1.67;73.73
83444;BME280;73374;41.170;-96.156;2023-12-20T08:57:04;97368.34;;;-1.59;73.79
83444;BME280;73374;41.170;-96.156;2023-12-20T09:02:07;97362.03;;;-1.52;73.73
83444;BME280;73374;41.170;-96.156;2023-12-20T09:07:21;97370.66;;;-1.55;73.54
83444;BME280;73374;41.170;-96.156;2023-12-20T09:12:26;97370.81;;;-1.58;73.76
83444;BME280;73374;41.170;-96.156;2023-12-20T09:17:29;97369.06;;;-1.57;74.23
83444;BME280;73374;41.170;-96.156;2023-12-20T09:22:33;97367.88;;;-1.66;74.46
83444;BME280;73374;41.170;-96.156;2023-12-20T09:27:37;97383.06;;;-1.64;73.72
83444;BME280;73374;41.170;-96.156;2023-12-20T09:32:40;97395.22;;;-1.54;73.93
83444;BME280;73374;41.170;-96.156;2023-12-20T09:37:45;97389.19;;;-1.83;74.67
83444;BME280;73374;41.170;-96.156;2023-12-20T09:42:56;97386.63;;;-1.67;74.61
83444;BME280;73374;41.170;-96.156;2023-12-20T09:48:00;97380.06;;;-1.87;75.02
83444;BME280;73374;41.170;-96.156;2023-12-20T09:53:05;97387.78;;;-1.72;74.54
83444;BME280;73374;41.170;-96.156;2023-12-20T09:58:12;97393.44;;;-1.67;74.53
83444;BME280;73374;41.170;-96.156;2023-12-20T10:03:15;97387.94;;;-1.75;74.72
83444;BME280;73374;41.170;-96.156;2023-12-20T10:08:21;97388.19;;;-1.80;75.03
83444;BME280;73374;41.170;-96.156;2023-12-20T10:13:26;97386.06;;;-1.72;75.06
83444;BME280;73374;41.170;-96.156;2023-12-20T10:18:29;97380.06;;;-1.87;75.08
83444;BME280;73374;41.170;-96.156;2023-12-20T10:23:40;97391.34;;;-1.91;75.43
83444;BME280;73374;41.170;-96.156;2023-12-20T10:28:45;97392.81;;;-1.87;75.52
83444;BME280;73374;41.170;-96.156;2023-12-20T10:33:48;97393.28;;;-1.96;75.59
83444;BME280;73374;41.170;-96.156;2023-12-20T10:38:52;97387.81;;;-2.04;76.02
83444;BME280;73374;41.170;-96.156;2023-12-20T10:43:59;97388.19;;;-2.12;76.44
83444;BME280;73374;41.170;-96.156;2023-12-20T10:49:02;97395.09;;;-1.98;76.20
83444;BME280;73374;41.170;-96.156;2023-12-20T10:54:07;97406.91;;;-2.13;76.19
83444;BME280;73374;41.170;-96.156;2023-12-20T10:59:11;97405.03;;;-2.09;76.48
83444;BME280;73374;41.170;-96.156;2023-12-20T11:04:21;97400.28;;;-2.15;76.69
83444;BME280;73374;41.170;-96.156;2023-12-20T11:09:28;97407.13;;;-2.49;76.53
83444;BME280;73374;41.170;-96.156;2023-12-20T11:14:41;97402.63;;;-2.59;75.97
83444;BME280;73374;41.170;-96.156;2023-12-20T11:20:04;97417.50;;;-2.69;76.86
83444;BME280;73374;41.170;-96.156;2023-12-20T11:25:09;97416.06;;;-2.57;77.49
83444;BME280;73374;41.170;-96.156;2023-12-20T11:30:15;97421.97;;;-2.57;77.61
83444;BME280;73374;41.170;-96.156;2023-12-20T11:35:19;97435.06;;;-2.64;77.80
83444;BME280;73374;41.170;-96.156;2023-12-20T11:40:23;97453.94;;;-2.68;78.01
83444;BME280;73374;41.170;-96.156;2023-12-20T11:45:28;97455.81;;;-2.89;76.80
83444;BME280;73374;41.170;-96.156;2023-12-20T11:50:32;97455.97;;;-2.92;77.38
83444;BME280;73374;41.170;-96.156;2023-12-20T11:55:35;97473.69;;;-2.74;78.17
83444;BME280;73374;41.170;-96.156;2023-12-20T12:00:41;97473.88;;;-2.61;78.28
83444;BME280;73374;41.170;-96.156;2023-12-20T12:05:47;97479.13;;;-2.81;77.68
83444;BME280;73374;41.170;-96.156;2023-12-20T12:10:51;97482.41;;;-2.79;78.06
83444;BME280;73374;41.170;-96.156;2023-12-20T12:15:55;97492.06;;;-2.68;78.64
83444;BME280;73374;41.170;-96.156;2023-12-20T12:21:02;97492.72;;;-2.65;78.67
83444;BME280;73374;41.170;-96.156;2023-12-20T12:26:13;97498.78;;;-2.67;79.48
83444;BME280;73374;41.170;-96.156;2023-12-20T12:31:18;97505.00;;;-2.90;79.11
83444;BME280;73374;41.170;-96.156;2023-12-20T12:36:21;97510.75;;;-2.87;79.38
83444;BME280;73374;41.170;-96.156;2023-12-20T12:41:24;97520.25;;;-2.90;79.35
83444;BME280;73374;41.170;-96.156;2023-12-20T12:46:28;97522.56;;;-2.68;79.47
83444;BME280;73374;41.170;-96.156;2023-12-20T12:51:32;97524.53;;;-2.74;78.99
83444;BME280;73374;41.170;-96.156;2023-12-20T12:56:35;97538.22;;;-2.93;79.22
83444;BME280;73374;41.170;-96.156;2023-12-20T13:01:39;97546.84;;;-2.97;78.95
83444;BME280;73374;41.170;-96.156;2023-12-20T13:06:43;97555.69;;;-3.05;79.38
83444;BME280;73374;41.170;-96.156;2023-12-20T13:11:46;97562.97;;;-3.16;79.18
83444;BME280;73374;41.170;-96.156;2023-12-20T13:16:50;97552.47;;;-3.08;79.34
83444;BME280;73374;41.170;-96.156;2023-12-20T13:21:54;97566.50;;;-3.01;79.95
83444;BME280;73374;41.170;-96.156;2023-12-20T13:26:57;97574.00;;;-2.98;80.00
83444;BME280;73374;41.170;-96.156;2023-12-20T13:32:02;97573.25;;;-3.00;79.67
83444;BME280;73374;41.170;-96.156;2023-12-20T13:37:05;97585.06;;;-2.99;80.41
83444;BME280;73374;41.170;-96.156;2023-12-20T13:42:08;97600.06;;;-3.12;79.51
83444;BME280;73374;41.170;-96.156;2023-12-20T13:47:13;97607.47;;;-3.07;79.83
83444;BME280;73374;41.170;-96.156;2023-12-20T13:52:16;97601.63;;;-3.09;79.26
83444;BME280;73374;41.170;-96.156;2023-12-20T13:57:19;97596.56;;;-3.09;79.29
83444;BME280;73374;41.170;-96.156;2023-12-20T14:02:44;97603.91;;;-3.22;78.48
83444;BME280;73374;41.170;-96.156;2023-12-20T14:07:47;97622.09;;;-2.93;79.42
83444;BME280;73374;41.170;-96.156;2023-12-20T14:12:50;97630.34;;;-2.71;79.97
83444;BME280;73374;41.170;-96.156;2023-12-20T14:17:55;97626.75;;;-2.50;79.83
83444;BME280;73374;41.170;-96.156;2023-12-20T14:22:58;97624.06;;;-2.47;79.12
83444;BME280;73374;41.170;-96.156;2023-12-20T14:28:01;97635.78;;;-2.42;77.36
83444;BME280;73374;41.170;-96.156;2023-12-20T14:33:06;97631.50;;;-2.25;76.87
83444;BME280;73374;41.170;-96.156;2023-12-20T14:38:09;97636.50;;;-2.06;75.78
83444;BME280;73374;41.170;-96.156;2023-12-20T14:43:12;97630.25;;;-1.50;75.13
83444;BME280;73374;41.170;-96.156;2023-12-20T14:48:16;97644.50;;;-0.83;72.07
83444;BME280;73374;41.170;-96.156;2023-12-20T14:53:20;97647.03;;;0.37;67.21
83444;BME280;73374;41.170;-96.156;2023-12-20T14:58:25;97653.34;;;1.55;63.81
83444;BME280;73374;41.170;-96.156;2023-12-20T15:03:29;97657.88;;;2.04;63.37
83444;BME280;73374;41.170;-96.156;2023-12-20T15:08:33;97670.31;;;2.48;62.28
83444;BME280;73374;41.170;-96.156;2023-12-20T15:13:35;97681.22;;;4.20;58.75
83444;BME280;73374;41.170;-96.156;2023-12-20T15:18:40;97684.50;;;5.34;54.62
83444;BME280;73374;41.170;-96.156;2023-12-20T15:23:43;97678.16;;;5.82;51.40
83444;BME280;73374;41.170;-96.156;2023-12-20T15:28:46;97685.41;;;5.56;51.93
83444;BME280;73374;41.170;-96.156;2023-12-20T15:33:51;97686.34;;;6.19;52.19
83444;BME280;73374;41.170;-96.156;2023-12-20T15:38:54;97691.41;;;6.72;51.04
83444;BME280;73374;41.170;-96.156;2023-12-20T15:43:57;97699.94;;;6.00;52.18
83444;BME280;73374;41.170;-96.156;2023-12-20T15:49:01;97698.72;;;7.37;49.37
83444;BME280;73374;41.170;-96.156;2023-12-20T15:54:05;97714.75;;;7.21;50.29
83444;BME280;73374;41.170;-96.156;2023-12-20T15:59:08;97722.97;;;6.13;53.24
83444;BME280;73374;41.170;-96.156;2023-12-20T16:04:12;97726.72;;;7.92;50.63
83444;BME280;73374;41.170;-96.156;2023-12-20T16:09:15;97722.22;;;7.24;49.15
83444;BME280;73374;41.170;-96.156;2023-12-20T16:14:18;97738.84;;;8.59;46.73
83444;BME280;73374;41.170;-96.156;2023-12-20T16:19:23;97736.13;;;7.83;48.31
83444;BME280;73374;41.170;-96.156;2023-12-20T16:24:26;97741.22;;;6.21;53.31
83444;BME280;73374;41.170;-96.156;2023-12-20T16:29:29;97740.06;;;6.25;53.39
83444;BME280;73374;41.170;-96.156;2023-12-20T16:34:33;97753.31;;;6.41;53.68
83444;BME280;73374;41.170;-96.156;2023-12-20T16:39:36;97750.88;;;8.40;49.43
83444;BME280;73374;41.170;-96.156;2023-12-20T16:44:39;97745.94;;;8.28;48.67
83444;BME280;73374;41.170;-96.156;2023-12-20T16:49:44;97748.06;;;9.27;47.38
83444;BME280;73374;41.170;-96.156;2023-12-20T16:54:47;97738.59;;;9.09;48.11
83444;BME280;73374;41.170;-96.156;2023-12-20T16:59:50;97734.41;;;9.53;45.81
83444;BME280;73374;41.170;-96.156;2023-12-20T17:04:55;97732.72;;;9.06;48.82
83444;BME280;73374;41.170;-96.156;2023-12-20T17:09:58;97740.78;;;8.18;49.87
83444;BME280;73374;41.170;-96.156;2023-12-20T17:15:01;97733.03;;;8.94;47.27
83444;BME280;73374;41.170;-96.156;2023-12-20T17:20:07;97736.94;;;8.61;48.86
83444;BME280;73374;41.170;-96.156;2023-12-20T17:25:10;97729.00;;;10.09;46.97
83444;BME280;73374;41.170;-96.156;2023-12-20T17:30:14;97725.41;;;11.24;42.23
83444;BME280;73374;41.170;-96.156;2023-12-20T17:35:18;97718.88;;;10.85;45.04
83444;BME280;73374;41.170;-96.156;2023-12-20T17:40:21;97713.81;;;12.35;41.53
83444;BME280;73374;41.170;-96.156;2023-12-20T17:45:24;97710.94;;;11.63;41.75
83444;BME280;73374;41.170;-96.156;2023-12-20T17:50:29;97698.94;;;12.84;41.05
83444;BME280;73374;41.170;-96.156;2023-12-20T17:55:32;97705.88;;;10.85;43.46
83444;BME280;73374;41.170;-96.156;2023-12-20T18:00:36;97696.25;;;13.09;40.30
83444;BME280;73374;41.170;-96.156;2023-12-20T18:05:40;97690.94;;;13.41;40.32
83444;BME280;73374;41.170;-96.156;2023-12-20T18:10:43;97680.34;;;12.87;39.68
83444;BME280;73374;41.170;-96.156;2023-12-20T18:15:46;97687.47;;;12.93;38.98
83444;BME280;73374;41.170;-96.156;2023-12-20T18:20:52;97678.59;;;13.89;37.90
83444;BME280;73374;41.170;-96.156;2023-12-20T18:25:55;97678.34;;;14.44;37.30
83444;BME280;73374;41.170;-96.156;2023-12-20T18:30:58;97663.00;;;16.79;34.45
83444;BME280;73374;41.170;-96.156;2023-12-20T18:36:03;97652.69;;;17.12;35.07
83444;BME280;73374;41.170;-96.156;2023-12-20T18:41:06;97659.06;;;15.91;34.46
83444;BME280;73374;41.170;-96.156;2023-12-20T18:46:09;97654.97;;;17.29;33.96
83444;BME280;73374;41.170;-96.156;2023-12-20T18:51:14;97652.56;;;15.66;37.32
83444;BME280;73374;41.170;-96.156;2023-12-20T18:56:17;97642.78;;;15.24;36.33
83444;BME280;73374;41.170;-96.156;2023-12-20T19:01:20;97650.72;;;14.19;38.17
83444;BME280;73374;41.170;-96.156;2023-12-20T19:06:25;97629.75;;;14.94;37.90
83444;BME280;73374;41.170;-96.156;2023-12-20T19:11:28;97627.19;;;14.57;39.08
83444;BME280;73374;41.170;-96.156;2023-12-20T19:16:31;97631.84;;;12.54;42.03
83444;BME280;73374;41.170;-96.156;2023-12-20T19:21:36;97621.56;;;15.91;38.46
83444;BME280;73374;41.170;-96.156;2023-12-20T19:26:39;97623.88;;;13.87;39.52
83444;BME280;73374;41.170;-96.156;2023-12-20T19:31:42;97635.09;;;13.96;39.54
83444;BME280;73374;41.170;-96.156;2023-12-20T19:36:46;97626.56;;;15.86;34.90
83444;BME280;73374;41.170;-96.156;2023-12-20T19:41:49;97617.56;;;14.72;36.70
83444;BME280;73374;41.170;-96.156;2023-12-20T19:46:52;97613.00;;;17.42;35.13
83444;BME280;73374;41.170;-96.156;2023-12-20T19:51:57;97608.78;;;17.00;34.54
83444;BME280;73374;41.170;-96.156;2023-12-20T19:57:00;97627.78;;;12.43;40.39
83444;BME280;73374;41.170;-96.156;2023-12-20T20:02:03;97621.78;;;15.17;37.69
83444;BME280;73374;41.170;-96.156;2023-12-20T20:07:08;97629.63;;;12.90;41.50
83444;BME280;73374;41.170;-96.156;2023-12-20T20:12:11;97641.97;;;13.66;40.14
83444;BME280;73374;41.170;-96.156;2023-12-20T20:17:14;97646.41;;;10.56;46.93
83444;BME280;73374;41.170;-96.156;2023-12-20T20:22:18;97640.66;;;11.63;44.65
83444;BME280;73374;41.170;-96.156;2023-12-20T20:27:21;97645.38;;;10.75;47.04
83444;BME280;73374;41.170;-96.156;2023-12-20T20:32:24;97648.81;;;10.50;48.62
83444;BME280;73374;41.170;-96.156;2023-12-20T20:37:29;97660.81;;;10.43;47.84
83444;BME280;73374;41.170;-96.156;2023-12-20T20:42:32;97652.94;;;10.35;48.01
83444;BME280;73374;41.170;-96.156;2023-12-20T20:47:35;97658.00;;;10.96;48.37
83444;BME280;73374;41.170;-96.156;2023-12-20T20:52:40;97655.31;;;11.14;46.45
83444;BME280;73374;41.170;-96.156;2023-12-20T20:57:43;97651.53;;;10.05;48.14
83444;BME280;73374;41.170;-96.156;2023-12-20T21:02:46;97675.50;;;9.45;50.33
83444;BME280;73374;41.170;-96.156;2023-12-20T21:07:51;97666.25;;;9.60;49.77
83444;BME280;73374;41.170;-96.156;2023-12-20T21:12:54;97659.19;;;10.06;49.79
83444;BME280;73374;41.170;-96.156;2023-12-20T21:17:57;97656.47;;;10.25;49.03
83444;BME280;73374;41.170;-96.156;2023-12-20T21:23:02;97670.63;;;9.78;50.58
83444;BME280;73374;41.170;-96.156;2023-12-20T21:28:05;97667.50;;;9.39;51.60
83444;BME280;73374;41.170;-96.156;2023-12-20T21:33:08;97686.00;;;8.89;53.45
83444;BME280;73374;41.170;-96.156;2023-12-20T21:38:13;97689.78;;;9.04;52.89
83444;BME280;73374;41.170;-96.156;2023-12-20T21:43:16;97690.22;;;8.90;52.38
83444;BME280;73374;41.170;-96.156;2023-12-20T21:48:19;97694.47;;;8.81;53.25
83444;BME280;73374;41.170;-96.156;2023-12-20T21:53:23;97702.16;;;8.73;54.49
83444;BME280;73374;41.170;-96.156;2023-12-20T21:58:26;97721.97;;;8.55;54.40
83444;BME280;73374;41.170;-96.156;2023-12-20T22:03:29;97713.78;;;8.11;55.52
83444;BME280;73374;41.170;-96.156;2023-12-20T22:08:34;97726.84;;;8.09;55.60
83444;BME280;73374;41.170;-96.156;2023-12-20T22:13:37;97741.72;;;8.07;55.99
83444;BME280;73374;41.170;-96.156;2023-12-20T22:18:40;97742.13;;;8.03;56.63
83444;BME280;73374;41.170;-96.156;2023-12-20T22:23:44;97746.31;;;7.94;56.32
83444;BME280;73374;41.170;-96.156;2023-12-20T22:28:48;97752.59;;;7.82;56.72
83444;BME280;73374;41.170;-96.156;2023-12-20T22:33:51;97763.31;;;7.68;57.48
83444;BME280;73374;41.170;-96.156;2023-12-20T22:38:55;97760.16;;;7.54;58.09
83444;BME280;73374;41.170;-96.156;2023-12-20T22:43:58;97758.06;;;7.39;58.31
83444;BME280;73374;41.170;-96.156;2023-12-20T22:49:01;97763.41;;;7.47;58.13
83444;BME280;73374;41.170;-96.156;2023-12-20T22:54:06;97758.50;;;7.13;58.87
83444;BME280;73374;41.170;-96.156;2023-12-20T22:59:09;97769.22;;;7.09;59.12
83444;BME280;73374;41.170;-96.156;2023-12-20T23:04:12;97777.44;;;7.23;59.05
83444;BME280;73374;41.170;-96.156;2023-12-20T23:09:17;97790.28;;;7.04;59.95
83444;BME280;73374;41.170;-96.156;2023-12-20T23:14:20;97806.13;;;7.20;59.22
83444;BME280;73374;41.170;-96.156;2023-12-20T23:19:25;97812.56;;;7.05;59.62
83444;BME280;73374;41.170;-96.156;2023-12-20T23:24:29;97815.22;;;6.94;59.81
83444;BME280;73374;41.170;-96.156;2023-12-20T23:29:33;97830.72;;;6.52;61.51
83444;BME280;73374;41.170;-96.156;2023-12-20T23:34:36;97829.47;;;6.35;61.52
83444;BME280;73374;41.170;-96.156;2023-12-20T23:39:43;97833.13;;;6.33;61.58
83444;BME280;73374;41.170;-96.156;2023-12-20T23:44:47;97835.72;;;6.33;62.97
83444;BME280;73374;41.170;-96.156;2023-12-20T23:49:50;97837.22;;;6.35;62.73
83444;BME280;73374;41.170;-96.156;2023-12-20T23:54:54;97834.44;;;6.27;62.55
83444;BME280;73374;41.170;-96.156;2023-12-20T23:59:57;97845.84;;;6.14;63.43
